sensor_id;sensor_type;location;lat;lon;timestamp;pressure;altitude;pressure_sealevel;temperature;humidity
80781;BME280;70341;56.408;10.874;2023-09-07T00:01:07;102729.85;;;19.06;71.97
80781;BME280;70341;56.408;10.874;2023-09-07T00:03:39;102729.73;;;19.01;71.76
80781;BME280;70341;56.408;10.874;2023-09-07T00:06:07;102730.70;;;18.99;71.92
80781;BME280;70341;56.408;10.874;2023-09-07T00:08:34;102733.80;;;18.98;71.98
80781;BME280;70341;56.408;10.874;2023-09-07T00:11:07;102735.24;;;18.98;71.74
80781;BME280;70341;56.408;10.874;2023-09-07T00:13:34;102738.64;;;18.99;71.64
80781;BME280;70341;56.408;10.874;2023-09-07T00:16:04;102739.31;;;18.99;71.77
80781;BME280;70341;56.408;10.874;2023-09-07T00:18:32;102736.81;;;18.99;71.71
80781;BME280;70341;56.408;10.874;2023-09-07T00:21:02;102740.37;;;19.00;71.66
80781;BME280;70341;56.408;10.874;2023-09-07T00:23:29;102745.61;;;19.00;71.80
80781;BME280;70341;56.408;10.874;2023-09-07T00:25:56;102748.77;;;18.98;71.56
80781;BME280;70341;56.408;10.874;2023-09-07T00:28:24;102754.68;;;18.95;71.36
80781;BME280;70341;56.408;10.874;2023-09-07T00:30:51;102756.33;;;18.90;71.17
80781;BME280;70341;56.408;10.874;2023-09-07T00:33:18;102758.11;;;18.86;70.94
80781;BME280;70341;56.408;10.874;2023-09-07T00:35:46;102754.45;;;18.79;70.92
80781;BME280;70341;56.408;10.874;2023-09-07T00:38:13;102748.50;;;18.75;70.94
80781;BME280;70341;56.408;10.874;2023-09-07T00:40:44;102745.30;;;18.73;71.10
80781;BME280;70341;56.408;10.874;2023-09-07T00:43:12;102747.58;;;18.71;71.14
80781;BME280;70341;56.408;10.874;2023-09-07T00:45:39;102743.50;;;18.65;71.04
80781;BME280;70341;56.408;10.874;2023-09-07T00:48:07;102755.52;;;18.71;70.90
80781;BME280;70341;56.408;10.874;2023-09-07T00:50:35;102759.34;;;18.66;70.98
80781;BME280;70341;56.408;10.874;2023-09-07T00:53:03;102758.31;;;18.64;70.98
80781;BME280;70341;56.408;10.874;2023-09-07T00:55:30;102762.52;;;18.62;70.93
80781;BME280;70341;56.408;10.874;2023-09-07T00:57:58;102758.57;;;18.62;70.89
80781;BME280;70341;56.408;10.874;2023-09-07T01:00:25;102760.96;;;18.65;70.86
80781;BME280;70341;56.408;10.874;2023-09-07T01:02:52;102763.95;;;18.67;70.94
80781;BME280;70341;56.408;10.874;2023-09-07T01:05:58;102760.89;;;18.68;70.99
80781;BME280;70341;56.408;10.874;2023-09-07T01:08:36;102752.73;;;18.64;70.87
80781;BME280;70341;56.408;10.874;2023-09-07T01:11:18;102753.54;;;18.62;70.88
80781;BME280;70341;56.408;10.874;2023-09-07T01:13:47;102754.95;;;18.63;70.74
80781;BME280;70341;56.408;10.874;2023-09-07T01:16:14;102749.53;;;18.63;70.34
80781;BME280;70341;56.408;10.874;2023-09-07T01:18:41;102754.08;;;18.62;70.18
80781;BME280;70341;56.408;10.874;2023-09-07T01:21:12;102750.96;;;18.58;69.99
80781;BME280;70341;56.408;10.874;2023-09-07T01:23:44;102751.20;;;18.52;70.01
80781;BME280;70341;56.408;10.874;2023-09-07T01:26:13;102757.27;;;18.50;70.05
80781;BME280;70341;56.408;10.874;2023-09-07T01:28:40;102756.28;;;18.47;70.09
80781;BME280;70341;56.408;10.874;2023-09-07T01:31:07;102758.80;;;18.43;70.10
80781;BME280;70341;56.408;10.874;2023-09-07T01:33:35;102757.69;;;18.40;70.18
80781;BME280;70341;56.408;10.874;2023-09-07T01:36:03;102758.11;;;18.38;70.18
80781;BME280;70341;56.408;10.874;2023-09-07T01:38:30;102757.79;;;18.37;70.17
80781;BME280;70341;56.408;10.874;2023-09-07T01:40:58;102758.63;;;18.38;70.26
80781;BME280;70341;56.408;10.874;2023-09-07T01:43:25;102751.39;;;18.43;70.14
80781;BME280;70341;56.408;10.874;2023-09-07T01:45:52;102752.52;;;18.46;70.06
80781;BME280;70341;56.408;10.874;2023-09-07T01:48:21;102749.41;;;18.47;70.19
80781;BME280;70341;56.408;10.874;2023-09-07T01:50:54;102753.02;;;18.47;70.22
80781;BME280;70341;56.408;10.874;2023-09-07T01:53:23;102755.56;;;18.43;70.05
80781;BME280;70341;56.408;10.874;2023-09-07T01:55:49;102755.02;;;18.42;70.13
80781;BME280;70341;56.408;10.874;2023-09-07T01:58:17;102754.83;;;18.43;69.97
80781;BME280;70341;56.408;10.874;2023-09-07T02:00:45;102757.53;;;18.43;69.79
80781;BME280;70341;56.408;10.874;2023-09-07T02:03:12;102754.05;;;18.44;69.68
80781;BME280;70341;56.408;10.874;2023-09-07T02:05:39;102756.50;;;18.42;69.46
80781;BME280;70341;56.408;10.874;2023-09-07T02:08:07;102758.34;;;18.37;69.42
80781;BME280;70341;56.408;10.874;2023-09-07T02:10:34;102757.87;;;18.34;69.47
80781;BME280;70341;56.408;10.874;2023-09-07T02:13:01;102755.23;;;18.33;69.36
80781;BME280;70341;56.408;10.874;2023-09-07T02:15:29;102751.07;;;18.29;69.32
80781;BME280;70341;56.408;10.874;2023-09-07T02:17:56;102756.38;;;18.27;69.35
80781;BME280;70341;56.408;10.874;2023-09-07T02:20:23;102756.00;;;18.23;69.34
80781;BME280;70341;56.408;10.874;2023-09-07T02:22:51;102757.35;;;18.20;69.38
80781;BME280;70341;56.408;10.874;2023-09-07T02:25:18;102753.79;;;18.19;69.49
80781;BME280;70341;56.408;10.874;2023-09-07T02:27:45;102753.40;;;18.20;69.34
80781;BME280;70341;56.408;10.874;2023-09-07T02:30:13;102752.02;;;18.19;69.40
80781;BME280;70341;56.408;10.874;2023-09-07T02:32:42;102755.36;;;18.17;69.41
80781;BME280;70341;56.408;10.874;2023-09-07T02:35:12;102755.83;;;18.14;69.39
80781;BME280;70341;56.408;10.874;2023-09-07T02:37:39;102754.77;;;18.08;69.58
80781;BME280;70341;56.408;10.874;2023-09-07T02:40:07;102757.67;;;18.08;69.64
80781;BME280;70341;56.408;10.874;2023-09-07T02:42:35;102760.29;;;18.11;69.59
80781;BME280;70341;56.408;10.874;2023-09-07T02:45:02;102760.11;;;18.10;69.84
80781;BME280;70341;56.408;10.874;2023-09-07T02:47:29;102757.80;;;18.09;69.88
80781;BME280;70341;56.408;10.874;2023-09-07T02:49:57;102758.37;;;18.08;69.92
80781;BME280;70341;56.408;10.874;2023-09-07T02:52:24;102753.59;;;18.07;70.01
80781;BME280;70341;56.408;10.874;2023-09-07T02:54:51;102750.66;;;18.08;70.05
80781;BME280;70341;56.408;10.874;2023-09-07T02:57:19;102748.38;;;18.11;70.08
80781;BME280;70341;56.408;10.874;2023-09-07T02:59:46;102743.92;;;18.15;69.89
80781;BME280;70341;56.408;10.874;2023-09-07T03:02:13;102748.87;;;18.13;70.05
80781;BME280;70341;56.408;10.874;2023-09-07T03:04:41;102748.23;;;18.11;70.19
80781;BME280;70341;56.408;10.874;2023-09-07T03:07:10;102744.27;;;18.06;70.20
80781;BME280;70341;56.408;10.874;2023-09-07T03:09:37;102746.83;;;18.05;70.30
80781;BME280;70341;56.408;10.874;2023-09-07T03:12:05;102751.29;;;18.05;70.36
80781;BME280;70341;56.408;10.874;2023-09-07T03:14:32;102752.52;;;18.06;70.55
80781;BME280;70341;56.408;10.874;2023-09-07T03:16:59;102756.52;;;18.05;70.84
80781;BME280;70341;56.408;10.874;2023-09-07T03:19:28;102753.34;;;18.04;70.70
80781;BME280;70341;56.408;10.874;2023-09-07T03:21:55;102758.70;;;18.04;70.67
80781;BME280;70341;56.408;10.874;2023-09-07T03:24:22;102757.39;;;18.06;70.67
80781;BME280;70341;56.408;10.874;2023-09-07T03:26:50;102757.52;;;18.07;70.63
80781;BME280;70341;56.408;10.874;2023-09-07T03:29:17;102755.21;;;18.06;70.95
80781;BME280;70341;56.408;10.874;2023-09-07T03:31:44;102757.34;;;18.07;71.05
80781;BME280;70341;56.408;10.874;2023-09-07T03:34:12;102759.48;;;18.08;71.04
80781;BME280;70341;56.408;10.874;2023-09-07T03:36:39;102758.42;;;18.07;71.03
80781;BME280;70341;56.408;10.874;2023-09-07T03:39:06;102760.52;;;18.09;71.05
80781;BME280;70341;56.408;10.874;2023-09-07T03:41:34;102760.45;;;18.11;70.79
80781;BME280;70341;56.408;10.874;2023-09-07T03:44:01;102767.24;;;18.12;70.60
80781;BME280;70341;56.408;10.874;2023-09-07T03:46:28;102764.13;;;18.13;70.77
80781;BME280;70341;56.408;10.874;2023-09-07T03:48:57;102760.38;;;18.13;70.45
80781;BME280;70341;56.408;10.874;2023-09-07T03:51:24;102759.70;;;18.12;70.37
80781;BME280;70341;56.408;10.874;2023-09-07T03:53:50;102759.69;;;18.12;70.30
80781;BME280;70341;56.408;10.874;2023-09-07T03:56:19;102762.36;;;18.13;70.68
80781;BME280;70341;56.408;10.874;2023-09-07T03:58:46;102763.17;;;18.15;70.60
80781;BME280;70341;56.408;10.874;2023-09-07T04:01:15;102762.63;;;18.15;70.56
80781;BME280;70341;56.408;10.874;2023-09-07T04:03:44;102764.31;;;18.13;70.76
80781;BME280;70341;56.408;10.874;2023-09-07T04:06:11;102763.98;;;18.13;70.74
80781;BME280;70341;56.408;10.874;2023-09-07T04:08:38;102766.80;;;18.14;70.79
80781;BME280;70341;56.408;10.874;2023-09-07T04:11:06;102766.38;;;18.15;70.70
80781;BME280;70341;56.408;10.874;2023-09-07T04:13:35;102762.20;;;18.17;70.80
80781;BME280;70341;56.408;10.874;2023-09-07T04:16:02;102758.98;;;18.16;70.66
80781;BME280;70341;56.408;10.874;2023-09-07T04:18:30;102761.34;;;18.15;70.64
80781;BME280;70341;56.408;10.874;2023-09-07T04:21:06;102761.06;;;18.18;70.73
80781;BME280;70341;56.408;10.874;2023-09-07T04:23:34;102762.73;;;18.21;70.73
80781;BME280;70341;56.408;10.874;2023-09-07T04:26:10;102762.65;;;18.23;70.62
80781;BME280;70341;56.408;10.874;2023-09-07T04:28:39;102763.84;;;18.25;70.64
80781;BME280;70341;56.408;10.874;2023-09-07T04:31:06;102764.02;;;18.25;70.49
80781;BME280;70341;56.408;10.874;2023-09-07T04:33:34;102764.55;;;18.26;70.43
80781;BME280;70341;56.408;10.874;2023-09-07T04:36:12;102767.11;;;18.29;70.50
80781;BME280;70341;56.408;10.874;2023-09-07T04:38:41;102766.86;;;18.31;70.67
80781;BME280;70341;56.408;10.874;2023-09-07T04:41:10;102768.16;;;18.29;70.48
80781;BME280;70341;56.408;10.874;2023-09-07T04:43:41;102769.05;;;18.30;70.68
80781;BME280;70341;56.408;10.874;2023-09-07T04:46:10;102764.89;;;18.30;70.64
80781;BME280;70341;56.408;10.874;2023-09-07T04:48:41;102771.02;;;18.30;70.62
80781;BME280;70341;56.408;10.874;2023-09-07T04:51:09;102767.88;;;18.32;70.44
80781;BME280;70341;56.408;10.874;2023-09-07T04:53:38;102763.69;;;18.33;70.41
80781;BME280;70341;56.408;10.874;2023-09-07T04:56:08;102762.45;;;18.33;70.22
80781;BME280;70341;56.408;10.874;2023-09-07T04:58:36;102763.77;;;18.31;70.16
80781;BME280;70341;56.408;10.874;2023-09-07T05:01:10;102764.75;;;18.29;70.27
80781;BME280;70341;56.408;10.874;2023-09-07T05:03:38;102767.05;;;18.26;70.29
80781;BME280;70341;56.408;10.874;2023-09-07T05:06:06;102765.43;;;18.26;70.26
80781;BME280;70341;56.408;10.874;2023-09-07T05:08:33;102769.04;;;18.26;70.32
80781;BME280;70341;56.408;10.874;2023-09-07T05:11:03;102773.83;;;18.27;70.16
80781;BME280;70341;56.408;10.874;2023-09-07T05:13:31;102770.84;;;18.25;70.14
80781;BME280;70341;56.408;10.874;2023-09-07T05:16:00;102770.67;;;18.25;70.23
80781;BME280;70341;56.408;10.874;2023-09-07T05:18:27;102768.70;;;18.25;70.31
80781;BME280;70341;56.408;10.874;2023-09-07T05:20:54;102771.42;;;18.29;70.33
80781;BME280;70341;56.408;10.874;2023-09-07T05:23:23;102769.38;;;18.31;70.12
80781;BME280;70341;56.408;10.874;2023-09-07T05:25:54;102774.26;;;18.34;70.18
80781;BME280;70341;56.408;10.874;2023-09-07T05:28:23;102775.77;;;18.37;70.00
80781;BME280;70341;56.408;10.874;2023-09-07T05:30:50;102779.38;;;18.42;69.99
80781;BME280;70341;56.408;10.874;2023-09-07T05:33:17;102780.94;;;18.47;69.81
80781;BME280;70341;56.408;10.874;2023-09-07T05:35:45;102780.89;;;18.53;69.73
80781;BME280;70341;56.408;10.874;2023-09-07T05:38:13;102776.37;;;18.58;69.62
80781;BME280;70341;56.408;10.874;2023-09-07T05:40:43;102775.62;;;18.64;69.49
80781;BME280;70341;56.408;10.874;2023-09-07T05:43:11;102780.40;;;18.70;69.43
80781;BME280;70341;56.408;10.874;2023-09-07T05:45:40;102778.68;;;18.77;69.30
80781;BME280;70341;56.408;10.874;2023-09-07T05:48:10;102781.60;;;18.84;69.08
80781;BME280;70341;56.408;10.874;2023-09-07T05:50:37;102777.77;;;18.94;68.87
80781;BME280;70341;56.408;10.874;2023-09-07T05:53:05;102785.36;;;18.97;68.75
80781;BME280;70341;56.408;10.874;2023-09-07T05:55:33;102784.52;;;19.01;68.48
80781;BME280;70341;56.408;10.874;2023-09-07T05:58:05;102784.30;;;19.06;68.49
80781;BME280;70341;56.408;10.874;2023-09-07T06:00:35;102792.75;;;19.10;68.39
80781;BME280;70341;56.408;10.874;2023-09-07T06:03:02;102794.02;;;19.14;68.16
80781;BME280;70341;56.408;10.874;2023-09-07T06:05:34;102799.30;;;19.21;68.18
80781;BME280;70341;56.408;10.874;2023-09-07T06:08:01;102798.62;;;19.29;68.05
80781;BME280;70341;56.408;10.874;2023-09-07T06:10:31;102797.79;;;19.31;67.88
80781;BME280;70341;56.408;10.874;2023-09-07T06:12:57;102803.27;;;19.34;68.00
80781;BME280;70341;56.408;10.874;2023-09-07T06:15:26;102805.71;;;19.35;67.94
80781;BME280;70341;56.408;10.874;2023-09-07T06:17:55;102801.98;;;19.34;67.87
80781;BME280;70341;56.408;10.874;2023-09-07T06:20:22;102807.29;;;19.36;67.68
80781;BME280;70341;56.408;10.874;2023-09-07T06:22:49;102811.86;;;19.43;67.49
80781;BME280;70341;56.408;10.874;2023-09-07T06:25:17;102811.34;;;19.55;67.48
80781;BME280;70341;56.408;10.874;2023-09-07T06:27:44;102810.44;;;19.63;67.14
80781;BME280;70341;56.408;10.874;2023-09-07T06:30:11;102809.60;;;19.66;67.01
80781;BME280;70341;56.408;10.874;2023-09-07T06:32:39;102805.54;;;19.69;67.06
80781;BME280;70341;56.408;10.874;2023-09-07T06:35:07;102802.64;;;19.72;67.07
80781;BME280;70341;56.408;10.874;2023-09-07T06:37:34;102806.98;;;19.80;66.68
80781;BME280;70341;56.408;10.874;2023-09-07T06:40:02;102807.83;;;19.89;66.22
80781;BME280;70341;56.408;10.874;2023-09-07T06:42:29;102811.96;;;19.97;65.93
80781;BME280;70341;56.408;10.874;2023-09-07T06:44:56;102814.52;;;20.04;65.75
80781;BME280;70341;56.408;10.874;2023-09-07T06:47:25;102813.04;;;20.05;65.53
80781;BME280;70341;56.408;10.874;2023-09-07T06:49:51;102813.02;;;20.06;65.36
80781;BME280;70341;56.408;10.874;2023-09-07T06:52:18;102807.29;;;20.09;65.46
80781;BME280;70341;56.408;10.874;2023-09-07T06:54:47;102812.11;;;20.14;65.42
80781;BME280;70341;56.408;10.874;2023-09-07T06:57:14;102806.66;;;20.14;65.50
80781;BME280;70341;56.408;10.874;2023-09-07T06:59:41;102805.39;;;20.14;65.25
80781;BME280;70341;56.408;10.874;2023-09-07T07:02:08;102802.60;;;20.16;65.26
80781;BME280;70341;56.408;10.874;2023-09-07T07:04:35;102803.45;;;20.25;65.38
80781;BME280;70341;56.408;10.874;2023-09-07T07:07:02;102806.22;;;20.31;65.38
80781;BME280;70341;56.408;10.874;2023-09-07T07:09:31;102801.41;;;20.37;65.32
80781;BME280;70341;56.408;10.874;2023-09-07T07:11:59;102798.63;;;20.47;64.96
80781;BME280;70341;56.408;10.874;2023-09-07T07:14:29;102800.52;;;20.60;64.39
80781;BME280;70341;56.408;10.874;2023-09-07T07:16:55;102807.34;;;20.75;64.07
80781;BME280;70341;56.408;10.874;2023-09-07T07:19:23;102800.96;;;20.87;63.83
80781;BME280;70341;56.408;10.874;2023-09-07T07:21:51;102801.44;;;20.95;63.57
80781;BME280;70341;56.408;10.874;2023-09-07T07:24:18;102812.13;;;21.02;63.32
80781;BME280;70341;56.408;10.874;2023-09-07T07:26:46;102815.84;;;21.07;63.03
80781;BME280;70341;56.408;10.874;2023-09-07T07:29:14;102818.98;;;21.16;62.91
80781;BME280;70341;56.408;10.874;2023-09-07T07:31:41;102817.63;;;21.18;62.48
80781;BME280;70341;56.408;10.874;2023-09-07T07:34:08;102817.08;;;21.11;62.26
80781;BME280;70341;56.408;10.874;2023-09-07T07:36:36;102812.49;;;21.09;62.71
80781;BME280;70341;56.408;10.874;2023-09-07T07:39:04;102820.69;;;21.11;62.69
80781;BME280;70341;56.408;10.874;2023-09-07T07:41:32;102818.01;;;21.21;62.43
80781;BME280;70341;56.408;10.874;2023-09-07T07:44:00;102816.35;;;21.26;62.60
80781;BME280;70341;56.408;10.874;2023-09-07T07:46:27;102821.55;;;21.34;62.20
80781;BME280;70341;56.408;10.874;2023-09-07T07:48:54;102819.21;;;21.44;61.94
80781;BME280;70341;56.408;10.874;2023-09-07T07:51:22;102813.66;;;21.56;61.69
80781;BME280;70341;56.408;10.874;2023-09-07T07:53:49;102814.10;;;21.68;61.59
80781;BME280;70341;56.408;10.874;2023-09-07T07:56:18;102818.14;;;21.81;61.11
80781;BME280;70341;56.408;10.874;2023-09-07T07:58:46;102815.33;;;21.82;60.54
80781;BME280;70341;56.408;10.874;2023-09-07T08:01:18;102817.74;;;21.85;60.54
80781;BME280;70341;56.408;10.874;2023-09-07T08:03:47;102811.81;;;21.91;60.58
80781;BME280;70341;56.408;10.874;2023-09-07T08:06:14;102817.69;;;21.99;59.98
80781;BME280;70341;56.408;10.874;2023-09-07T08:08:41;102822.67;;;22.11;59.96
80781;BME280;70341;56.408;10.874;2023-09-07T08:11:09;102821.44;;;22.20;59.37
80781;BME280;70341;56.408;10.874;2023-09-07T08:13:36;102820.17;;;22.26;58.53
80781;BME280;70341;56.408;10.874;2023-09-07T08:16:04;102819.68;;;22.25;58.73
80781;BME280;70341;56.408;10.874;2023-09-07T08:18:34;102819.20;;;22.24;58.92
80781;BME280;70341;56.408;10.874;2023-09-07T08:21:02;102822.55;;;22.35;58.76
80781;BME280;70341;56.408;10.874;2023-09-07T08:23:31;102823.38;;;22.46;59.03
80781;BME280;70341;56.408;10.874;2023-09-07T08:25:58;102823.91;;;22.65;58.44
80781;BME280;70341;56.408;10.874;2023-09-07T08:28:25;102824.86;;;22.74;58.09
80781;BME280;70341;56.408;10.874;2023-09-07T08:30:53;102819.23;;;22.90;57.53
80781;BME280;70341;56.408;10.874;2023-09-07T08:33:23;102819.72;;;23.09;57.32
80781;BME280;70341;56.408;10.874;2023-09-07T08:35:57;102821.77;;;23.23;56.90
80781;BME280;70341;56.408;10.874;2023-09-07T08:38:24;102819.88;;;23.34;56.73
80781;BME280;70341;56.408;10.874;2023-09-07T08:40:54;102826.40;;;23.52;55.98
80781;BME280;70341;56.408;10.874;2023-09-07T08:43:21;102826.15;;;23.68;55.40
80781;BME280;70341;56.408;10.874;2023-09-07T08:46:04;102825.31;;;23.96;55.08
80781;BME280;70341;56.408;10.874;2023-09-07T08:48:33;102825.25;;;24.02;54.39
80781;BME280;70341;56.408;10.874;2023-09-07T08:51:02;102831.35;;;24.09;54.03
80781;BME280;70341;56.408;10.874;2023-09-07T08:53:32;102829.50;;;24.16;53.63
80781;BME280;70341;56.408;10.874;2023-09-07T08:56:01;102826.48;;;24.32;53.53
80781;BME280;70341;56.408;10.874;2023-09-07T08:58:30;102822.50;;;24.54;52.77
80781;BME280;70341;56.408;10.874;2023-09-07T09:00:57;102824.61;;;24.71;52.01
80781;BME280;70341;56.408;10.874;2023-09-07T09:03:29;102826.05;;;24.77;51.88
80781;BME280;70341;56.408;10.874;2023-09-07T09:05:56;102817.63;;;24.99;51.95
80781;BME280;70341;56.408;10.874;2023-09-07T09:08:23;102823.36;;;25.30;51.24
80781;BME280;70341;56.408;10.874;2023-09-07T09:11:03;102811.33;;;25.92;50.42
80781;BME280;70341;56.408;10.874;2023-09-07T09:13:33;102812.58;;;26.43;48.39
80781;BME280;70341;56.408;10.874;2023-09-07T09:16:04;102815.09;;;26.40;47.93
80781;BME280;70341;56.408;10.874;2023-09-07T09:18:32;102810.42;;;26.59;47.65
80781;BME280;70341;56.408;10.874;2023-09-07T09:21:00;102810.92;;;26.67;47.40
80781;BME280;70341;56.408;10.874;2023-09-07T09:23:33;102817.72;;;26.39;47.43
80781;BME280;70341;56.408;10.874;2023-09-07T09:26:03;102816.75;;;26.43;47.71
80781;BME280;70341;56.408;10.874;2023-09-07T09:28:34;102813.26;;;26.99;46.74
80781;BME280;70341;56.408;10.874;2023-09-07T09:31:03;102809.57;;;27.14;46.67
80781;BME280;70341;56.408;10.874;2023-09-07T09:33:32;102809.92;;;27.35;46.31
80781;BME280;70341;56.408;10.874;2023-09-07T09:35:59;102808.80;;;27.72;45.66
80781;BME280;70341;56.408;10.874;2023-09-07T09:38:28;102814.21;;;28.64;43.50
80781;BME280;70341;56.408;10.874;2023-09-07T09:40:56;102824.39;;;28.50;42.62
80781;BME280;70341;56.408;10.874;2023-09-07T09:43:24;102818.41;;;28.30;42.85
80781;BME280;70341;56.408;10.874;2023-09-07T09:45:53;102820.86;;;28.96;42.33
80781;BME280;70341;56.408;10.874;2023-09-07T09:48:21;102817.02;;;29.75;40.46
80781;BME280;70341;56.408;10.874;2023-09-07T09:50:51;102819.21;;;29.91;40.25
80781;BME280;70341;56.408;10.874;2023-09-07T09:53:19;102807.80;;;30.54;39.71
80781;BME280;70341;56.408;10.874;2023-09-07T09:55:47;102808.64;;;30.61;38.99
80781;BME280;70341;56.408;10.874;2023-09-07T09:58:16;102818.06;;;31.09;37.88
80781;BME280;70341;56.408;10.874;2023-09-07T10:00:50;102810.34;;;31.23;37.30
80781;BME280;70341;56.408;10.874;2023-09-07T10:06:20;102809.05;;;31.95;36.11
80781;BME280;70341;56.408;10.874;2023-09-07T10:09:02;102805.45;;;32.55;34.92
80781;BME280;70341;56.408;10.874;2023-09-07T10:11:33;102800.85;;;32.39;34.94
80781;BME280;70341;56.408;10.874;2023-09-07T10:14:02;102795.88;;;32.42;35.25
80781;BME280;70341;56.408;10.874;2023-09-07T10:16:52;102794.97;;;32.18;35.30
80781;BME280;70341;56.408;10.874;2023-09-07T10:19:23;102791.85;;;32.03;34.96
80781;BME280;70341;56.408;10.874;2023-09-07T10:21:54;102799.23;;;32.62;33.95
80781;BME280;70341;56.408;10.874;2023-09-07T10:24:28;102796.67;;;33.58;33.81
80781;BME280;70341;56.408;10.874;2023-09-07T10:27:03;102797.91;;;33.98;32.30
80781;BME280;70341;56.408;10.874;2023-09-07T10:29:50;102789.91;;;34.91;30.87
80781;BME280;70341;56.408;10.874;2023-09-07T10:32:23;102788.77;;;35.64;29.88
80781;BME280;70341;56.408;10.874;2023-09-07T10:34:50;102793.50;;;36.14;28.85
80781;BME280;70341;56.408;10.874;2023-09-07T10:37:17;102789.92;;;36.48;28.76
80781;BME280;70341;56.408;10.874;2023-09-07T10:39:45;102787.84;;;36.64;28.21
80781;BME280;70341;56.408;10.874;2023-09-07T10:42:24;102784.98;;;36.80;27.57
80781;BME280;70341;56.408;10.874;2023-09-07T10:44:53;102782.58;;;36.56;28.08
80781;BME280;70341;56.408;10.874;2023-09-07T10:47:21;102783.64;;;36.74;28.08
80781;BME280;70341;56.408;10.874;2023-09-07T10:49:48;102779.55;;;36.95;27.56
80781;BME280;70341;56.408;10.874;2023-09-07T10:52:16;102780.67;;;37.57;26.64
80781;BME280;70341;56.408;10.874;2023-09-07T10:54:43;102774.20;;;38.16;25.94
80781;BME280;70341;56.408;10.874;2023-09-07T10:57:12;102774.30;;;38.36;25.04
80781;BME280;70341;56.408;10.874;2023-09-07T10:59:46;102769.23;;;38.57;25.15
80781;BME280;70341;56.408;10.874;2023-09-07T11:02:16;102775.00;;;38.99;24.48
80781;BME280;70341;56.408;10.874;2023-09-07T11:04:44;102774.92;;;39.44;23.51
80781;BME280;70341;56.408;10.874;2023-09-07T11:07:12;102770.50;;;39.48;23.77
80781;BME280;70341;56.408;10.874;2023-09-07T11:09:42;102774.47;;;39.56;23.88
80781;BME280;70341;56.408;10.874;2023-09-07T11:12:14;102774.99;;;39.77;23.30
80781;BME280;70341;56.408;10.874;2023-09-07T11:14:42;102774.80;;;39.73;22.71
80781;BME280;70341;56.408;10.874;2023-09-07T11:17:09;102779.91;;;39.71;23.13
80781;BME280;70341;56.408;10.874;2023-09-07T11:19:36;102774.91;;;39.76;23.08
80781;BME280;70341;56.408;10.874;2023-09-07T11:22:05;102779.02;;;39.72;23.05
80781;BME280;70341;56.408;10.874;2023-09-07T11:24:34;102780.34;;;40.01;23.21
80781;BME280;70341;56.408;10.874;2023-09-07T11:27:02;102779.02;;;40.08;22.27
80781;BME280;70341;56.408;10.874;2023-09-07T11:29:33;102777.41;;;40.03;23.12
80781;BME280;70341;56.408;10.874;2023-09-07T11:32:10;102770.35;;;40.10;22.84
80781;BME280;70341;56.408;10.874;2023-09-07T11:34:52;102775.41;;;40.18;22.69
80781;BME280;70341;56.408;10.874;2023-09-07T11:37:25;102773.89;;;40.48;22.31
80781;BME280;70341;56.408;10.874;2023-09-07T11:39:52;102768.30;;;40.82;21.81
80781;BME280;70341;56.408;10.874;2023-09-07T11:42:21;102767.65;;;41.03;21.62
80781;BME280;70341;56.408;10.874;2023-09-07T11:44:48;102768.73;;;41.44;20.94
80781;BME280;70341;56.408;10.874;2023-09-07T11:47:15;102763.36;;;41.97;20.98
80781;BME280;70341;56.408;10.874;2023-09-07T11:49:44;102766.41;;;42.12;20.17
80781;BME280;70341;56.408;10.874;2023-09-07T11:52:11;102765.70;;;42.45;19.93
80781;BME280;70341;56.408;10.874;2023-09-07T11:54:38;102761.10;;;42.84;19.95
80781;BME280;70341;56.408;10.874;2023-09-07T11:57:05;102761.21;;;43.28;19.00
80781;BME280;70341;56.408;10.874;2023-09-07T11:59:32;102760.89;;;43.50;18.80
80781;BME280;70341;56.408;10.874;2023-09-07T12:02:16;102762.21;;;43.64;18.91
80781;BME280;70341;56.408;10.874;2023-09-07T12:04:43;102756.17;;;43.95;18.83
80781;BME280;70341;56.408;10.874;2023-09-07T12:07:10;102756.06;;;44.35;18.38
80781;BME280;70341;56.408;10.874;2023-09-07T12:09:38;102757.09;;;44.59;17.55
80781;BME280;70341;56.408;10.874;2023-09-07T12:12:06;102755.13;;;44.74;17.58
80781;BME280;70341;56.408;10.874;2023-09-07T12:14:33;102756.67;;;44.96;17.94
80781;BME280;70341;56.408;10.874;2023-09-07T12:17:01;102755.99;;;45.16;17.69
80781;BME280;70341;56.408;10.874;2023-09-07T12:19:28;102753.20;;;45.30;17.06
80781;BME280;70341;56.408;10.874;2023-09-07T12:21:55;102754.16;;;45.12;16.94
80781;BME280;70341;56.408;10.874;2023-09-07T12:24:23;102752.12;;;44.82;17.38
80781;BME280;70341;56.408;10.874;2023-09-07T12:26:50;102755.73;;;44.84;17.29
80781;BME280;70341;56.408;10.874;2023-09-07T12:29:17;102749.73;;;44.97;17.30
80781;BME280;70341;56.408;10.874;2023-09-07T12:31:45;102749.83;;;45.12;17.01
80781;BME280;70341;56.408;10.874;2023-09-07T12:34:12;102745.29;;;45.16;17.11
80781;BME280;70341;56.408;10.874;2023-09-07T12:36:39;102737.10;;;45.30;16.91
80781;BME280;70341;56.408;10.874;2023-09-07T12:39:07;102733.23;;;45.40;16.95
80781;BME280;70341;56.408;10.874;2023-09-07T12:41:34;102738.60;;;45.46;16.67
80781;BME280;70341;56.408;10.874;2023-09-07T12:44:01;102733.23;;;45.35;16.77
80781;BME280;70341;56.408;10.874;2023-09-07T12:46:30;102735.29;;;45.40;16.38
80781;BME280;70341;56.408;10.874;2023-09-07T12:48:58;102727.91;;;45.21;16.54
80781;BME280;70341;56.408;10.874;2023-09-07T12:51:24;102730.06;;;45.30;16.61